Montello, WI

9:29 AM CST on March 02, 2015 (GMT -0600)
Marquette County | Change Station
CLOSE
Current Station
Personal Weather Station
Location: Montello, WI
Elevation: 797 ft
Nearby Weather Stations
Active Advisory: Winter Weather Advisory

Elev 797 ft 43.79 °N, 89.34 °W | Updated 10 minutes ago

Clear
Clear
20.0 °F
Feels Like 12 °F
N
6.0
Wind Variable Wind from NW
Gusts 9.0 mph

Today
High -- | Low -- °F
--% Chance of Precip.
Yesterday
High -- | Low -- °F
Precip. -- in
6:32 AM 5:46 PM
Waxing Gibbous, 91% visible
Pressure 30.53 in
Visibility 10.0 miles
Clouds Clear
Windchill 12 °F
Dew Point 12 °F
Humidity 72%
Rainfall -999.00 in
Snow Depth Not available.
UV 2 out of 12
Pollen .50 out of 12
Air Quality Not available.
Flu Activity Not available.
METAR KY50 021456Z AUTO 33005KT 10SM CLR M08/M14 A3049 RMK AO2 TSNO 53016 T10831138 SLP337

More Conditions Fewer Conditions

Pressure 30.53 in
Visibility 10.0 miles
Clouds Clear
Windchill 12 °F
Dew Point 12 °F
Humidity 72%
Rainfall -999.00 in
Snow Depth Not available.
UV 2 out of 12
Pollen .50 out of 12
Air Quality Not available.
Flu Activity Not available.
METAR KY50 021456Z AUTO 33005KT 10SM CLR M08/M14 A3049 RMK AO2 TSNO 53016 T10831138 SLP337

More Conditions Fewer Conditions

10-Day Weather Forecast

Almanac

Astronomy

Mar. 02, 2015 Rise Set
Actual Time
Civil Twilight
Nautical Twilight
Astronomical Twilight
Moon
Length of Visible Light
Length of Day
Tomorrow will be .
, % of the Moon is Illuminated

Today's Extremes

State Highs State Lows

Community

WunderPhotos

Upload Photos

1,801,811 photos uploaded!

WunderBlogs® & News

Nearby

Air Quality

  Air Quality AQ Index Pollutant
Not available.

Snow Depth

Station Depth Elevation

Earthquake Activity

City Distance Mag. Time & Date
Minimum magnitude displayed is 2.5.

Coastal Water Temperatures

Place Temperature

Nearby Weather Stations

Winter Weather Advisory
Statement as of 4:07 AM CST on March 02, 2015

... Winter Weather Advisory in effect from 3 am to 6 PM CST
Tuesday...

The National Weather Service in Milwaukee/Sullivan has issued a
Winter Weather Advisory for snow... which is in effect from 3 am
to 6 PM CST Tuesday.

* Timing... snow will arrive early Tuesday morning and taper off
during the afternoon.

* Snow accumulations... 2 to 4 inches.

* Impacts... a period of heavy... wet snow will cause slippery
roads during the Tuesday morning commute.

Precautionary/preparedness actions...

A Winter Weather Advisory for snow means that periods of snow
will cause primarily travel difficulties. Be prepared for snow
covered roads and limited visibilities... and use caution while
driving.